createdAt,value
2016-07-20T00:00:33.806Z,18.97
2016-07-20T00:01:33.560Z,18.91
2016-07-20T00:02:33.568Z,18.9
2016-07-20T00:03:33.558Z,18.84
2016-07-20T00:04:33.597Z,18.86
2016-07-20T00:05:33.554Z,18.9
2016-07-20T00:06:33.596Z,18.94
2016-07-20T00:07:33.602Z,18.97
2016-07-20T00:08:33.596Z,18.97
2016-07-20T00:09:33.639Z,18.92
2016-07-20T00:10:33.575Z,18.92
2016-07-20T00:11:33.602Z,18.82
2016-07-20T00:12:33.712Z,18.76
2016-07-20T00:13:33.594Z,18.74
2016-07-20T00:14:33.589Z,18.74
2016-07-20T00:15:33.595Z,18.73
2016-07-20T00:16:33.575Z,18.74
2016-07-20T00:17:33.608Z,18.73
2016-07-20T00:18:33.594Z,18.74
2016-07-20T00:19:33.833Z,18.76
2016-07-20T00:20:33.593Z,18.74
2016-07-20T00:21:33.600Z,18.64
2016-07-20T00:22:33.665Z,18.74
2016-07-20T00:23:33.608Z,18.67
2016-07-20T00:24:33.615Z,18.68
2016-07-20T00:25:33.597Z,18.65
2016-07-20T00:26:33.604Z,18.72
2016-07-20T00:27:33.602Z,18.73
2016-07-20T00:28:33.633Z,18.67
2016-07-20T00:29:33.605Z,18.73
2016-07-20T00:30:33.664Z,18.57
2016-07-20T00:31:33.628Z,18.73
2016-07-20T00:32:33.598Z,18.73
2016-07-20T00:33:33.638Z,18.64
2016-07-20T00:34:33.598Z,18.74
2016-07-20T00:35:33.599Z,18.58
2016-07-20T00:36:33.653Z,18.67
2016-07-20T00:37:33.669Z,18.64
2016-07-20T00:38:33.616Z,18.5
2016-07-20T00:39:33.631Z,18.67
2016-07-20T00:40:33.606Z,18.58
2016-07-20T00:41:33.629Z,18.64
2016-07-20T00:42:33.604Z,18.67
2016-07-20T00:43:33.600Z,18.62
2016-07-20T00:44:34.225Z,18.59
2016-07-20T00:45:33.779Z,18.47
2016-07-20T00:46:33.590Z,18.64
2016-07-20T00:47:33.697Z,18.73
2016-07-20T00:48:33.660Z,18.58
2016-07-20T00:49:33.626Z,18.61
2016-07-20T00:50:33.621Z,18.7
2016-07-20T00:51:33.670Z,18.74
2016-07-20T00:52:33.679Z,18.64
2016-07-20T00:53:33.640Z,18.64
2016-07-20T00:54:33.630Z,18.61
2016-07-20T00:55:33.629Z,18.59
2016-07-20T00:56:33.658Z,18.55
2016-07-20T00:57:33.689Z,18.55
2016-07-20T00:58:33.625Z,18.68
2016-07-20T00:59:33.650Z,18.57
2016-07-20T01:00:33.724Z,18.62
2016-07-20T01:01:33.633Z,18.61
2016-07-20T01:02:33.660Z,18.58
2016-07-20T01:03:33.630Z,18.52
2016-07-20T01:04:33.638Z,18.46
2016-07-20T01:05:33.631Z,18.5
2016-07-20T01:06:33.813Z,18.54
2016-07-20T01:07:33.705Z,18.44
2016-07-20T01:08:33.640Z,18.47
2016-07-20T01:09:33.650Z,18.5
2016-07-20T01:10:33.654Z,18.54
2016-07-20T01:11:33.636Z,18.39
2016-07-20T01:12:33.695Z,18.46
2016-07-20T01:13:33.660Z,18.4
2016-07-20T01:14:33.664Z,18.42
2016-07-20T01:15:33.789Z,18.42
2016-07-20T01:16:33.650Z,18.37
2016-07-20T01:17:33.639Z,18.29
2016-07-20T01:18:33.646Z,18.31
2016-07-20T01:19:33.642Z,18.25
2016-07-20T01:20:33.661Z,18.31
2016-07-20T01:21:33.661Z,18.27
2016-07-20T01:22:33.634Z,18.24
2016-07-20T01:23:33.654Z,18.31
2016-07-20T01:24:33.661Z,18.29
2016-07-20T01:25:33.658Z,18.31
2016-07-20T01:26:33.654Z,18.22
2016-07-20T01:27:33.666Z,18.33
2016-07-20T01:28:33.651Z,18.24
2016-07-20T01:29:33.656Z,18.25
2016-07-20T01:30:33.641Z,18.31
2016-07-20T01:31:33.637Z,18.22
2016-07-20T01:32:33.671Z,18.39
2016-07-20T01:33:33.657Z,18.24
2016-07-20T01:34:33.658Z,18.24
2016-07-20T01:35:33.685Z,18.25
2016-07-20T01:36:33.633Z,18.25
2016-07-20T01:37:33.633Z,18.22
2016-07-20T01:38:33.633Z,18.27
2016-07-20T01:39:33.665Z,18.19
2016-07-20T01:40:33.660Z,18.18
2016-07-20T01:41:33.692Z,18.12
2016-07-20T01:42:33.661Z,18.18
2016-07-20T01:43:33.664Z,18.19
2016-07-20T01:44:33.668Z,18.18
2016-07-20T01:45:33.684Z,18.17
2016-07-20T01:46:33.696Z,18.21
2016-07-20T01:47:33.689Z,18.12
2016-07-20T01:48:33.668Z,18.06
2016-07-20T01:49:33.730Z,18.07
2016-07-20T01:50:33.700Z,18.06
2016-07-20T01:51:33.694Z,18.21
2016-07-20T01:52:33.779Z,18.1
2016-07-20T01:53:33.684Z,18.1
2016-07-20T01:54:33.661Z,18.12
2016-07-20T01:55:33.661Z,18.13
2016-07-20T01:56:33.730Z,18.18
2016-07-20T01:57:33.692Z,18.12
2016-07-20T01:58:33.692Z,18.17
2016-07-20T01:59:33.677Z,18.13
2016-07-20T02:00:33.823Z,18.1
2016-07-20T02:01:33.692Z,18.12
2016-07-20T02:02:33.816Z,18.13
2016-07-20T02:03:33.663Z,18.18
2016-07-20T02:04:33.685Z,18.31
2016-07-20T02:05:33.706Z,18.28
2016-07-20T02:06:33.696Z,18.19
2016-07-20T02:07:33.695Z,18.25
2016-07-20T02:08:33.692Z,18.25
2016-07-20T02:09:33.683Z,18.33
2016-07-20T02:10:33.708Z,18.34
2016-07-20T02:11:33.686Z,18.28
2016-07-20T02:12:33.725Z,18.36
2016-07-20T02:13:33.689Z,18.34
2016-07-20T02:14:33.725Z,18.36
2016-07-20T02:15:33.717Z,18.31
2016-07-20T02:16:33.698Z,18.29
2016-07-20T02:17:33.724Z,18.33
2016-07-20T02:18:33.726Z,18.27
2016-07-20T02:19:33.696Z,18.33
2016-07-20T02:20:33.725Z,18.36
2016-07-20T02:21:33.720Z,18.34
2016-07-20T02:22:33.703Z,18.37
2016-07-20T02:23:33.713Z,18.31
2016-07-20T02:24:33.725Z,18.36
2016-07-20T02:25:33.726Z,18.36
2016-07-20T02:26:33.726Z,18.43
2016-07-20T02:27:33.726Z,18.39
2016-07-20T02:28:33.726Z,18.43
2016-07-20T02:29:33.696Z,18.39
2016-07-20T02:30:33.726Z,18.37
2016-07-20T02:31:33.724Z,18.42
2016-07-20T02:32:33.719Z,18.43
2016-07-20T02:33:33.726Z,18.37
2016-07-20T02:34:33.702Z,18.46
2016-07-20T02:35:33.726Z,18.37
2016-07-20T02:36:33.962Z,18.33
2016-07-20T02:37:33.755Z,18.31
2016-07-20T02:38:33.748Z,18.37
2016-07-20T02:39:33.754Z,18.29
2016-07-20T02:40:33.721Z,18.39
2016-07-20T02:41:33.750Z,18.33
2016-07-20T02:42:33.756Z,18.27
2016-07-20T02:43:33.727Z,18.24
2016-07-20T02:44:33.720Z,18.19
2016-07-20T02:45:33.747Z,18.19
2016-07-20T02:46:33.776Z,18.24
2016-07-20T02:47:33.844Z,18.09
2016-07-20T02:48:33.732Z,18.19
2016-07-20T02:49:33.726Z,18.22
2016-07-20T02:50:33.727Z,18.17
2016-07-20T02:51:33.749Z,18.19
2016-07-20T02:52:33.736Z,18.15
2016-07-20T02:53:33.795Z,18.17
2016-07-20T02:54:33.756Z,18.18
2016-07-20T02:55:33.748Z,18.1
2016-07-20T02:56:33.741Z,18.06
2016-07-20T02:57:33.760Z,18.17
2016-07-20T02:58:33.815Z,18.12
2016-07-20T02:59:33.745Z,18.17
2016-07-20T03:00:33.723Z,18.13
2016-07-20T03:01:33.748Z,18.13
2016-07-20T03:02:33.758Z,18.18
2016-07-20T03:03:33.760Z,18.15
2016-07-20T03:04:33.729Z,18.13
2016-07-20T03:05:33.747Z,18.15
2016-07-20T03:06:33.788Z,18.28
2016-07-20T03:07:33.738Z,18.21
2016-07-20T03:08:33.761Z,18.27
2016-07-20T03:09:33.728Z,18.25
2016-07-20T03:10:33.756Z,18.22
2016-07-20T03:11:33.756Z,18.24
2016-07-20T03:12:33.959Z,18.22
2016-07-20T03:13:33.783Z,18.28
2016-07-20T03:14:33.758Z,18.22
2016-07-20T03:15:33.759Z,18.22
2016-07-20T03:16:33.725Z,18.27
2016-07-20T03:17:33.772Z,18.21
2016-07-20T03:18:34.052Z,18.17
2016-07-20T03:19:33.764Z,18.28
2016-07-20T03:20:33.789Z,18.28
2016-07-20T03:21:33.762Z,18.25
2016-07-20T03:22:33.788Z,18.33
2016-07-20T03:23:33.820Z,18.29
2016-07-20T03:24:33.785Z,18.27
2016-07-20T03:25:33.789Z,18.34
2016-07-20T03:26:33.823Z,18.33
2016-07-20T03:27:33.788Z,18.33
2016-07-20T03:28:33.779Z,18.34
2016-07-20T03:29:33.790Z,18.31
2016-07-20T03:30:33.788Z,18.39
2016-07-20T03:31:33.787Z,18.34
2016-07-20T03:32:33.754Z,18.31
2016-07-20T03:33:33.773Z,18.31
2016-07-20T03:34:33.802Z,18.36
2016-07-20T03:35:33.760Z,18.29
2016-07-20T03:36:33.791Z,18.31
2016-07-20T03:37:33.787Z,18.28
2016-07-20T03:38:33.822Z,18.34
2016-07-20T03:39:33.780Z,18.31
2016-07-20T03:40:33.758Z,18.33
2016-07-20T03:41:33.787Z,18.27
2016-07-20T03:42:33.908Z,18.21
2016-07-20T03:43:33.789Z,18.27
2016-07-20T03:44:33.775Z,18.31
2016-07-20T03:45:33.789Z,18.33
2016-07-20T03:46:34.079Z,18.39
2016-07-20T03:47:33.834Z,18.29
2016-07-20T03:48:33.832Z,18.34
2016-07-20T03:49:43.719Z,18.33
2016-07-20T03:50:33.787Z,18.33
2016-07-20T03:51:33.791Z,18.29
2016-07-20T03:52:33.766Z,18.27
2016-07-20T03:53:33.823Z,18.33
2016-07-20T03:54:33.786Z,18.31
2016-07-20T03:55:33.788Z,18.36
2016-07-20T03:56:33.779Z,18.46
2016-07-20T03:57:33.796Z,18.52
2016-07-20T03:58:33.825Z,18.58
2016-07-20T03:59:33.791Z,18.61
2016-07-20T04:00:33.848Z,18.7
2016-07-20T04:01:33.778Z,18.67
2016-07-20T04:02:33.790Z,18.65
2016-07-20T04:03:33.851Z,18.62
2016-07-20T04:04:33.802Z,18.61
2016-07-20T04:05:33.826Z,18.58
2016-07-20T04:06:33.805Z,18.57
2016-07-20T04:07:33.846Z,18.59
2016-07-20T04:08:33.818Z,18.65
2016-07-20T04:09:33.825Z,18.59
2016-07-20T04:10:33.789Z,18.65
2016-07-20T04:11:33.822Z,18.74
2016-07-20T04:12:33.799Z,18.67
2016-07-20T04:13:33.801Z,18.79
2016-07-20T04:14:33.831Z,18.8
2016-07-20T04:15:33.837Z,18.87
2016-07-20T04:16:33.818Z,18.87
2016-07-20T04:17:33.833Z,18.87
2016-07-20T04:18:33.824Z,18.84
2016-07-20T04:19:33.837Z,18.86
2016-07-20T04:20:33.852Z,18.91
2016-07-20T04:21:33.845Z,18.9
2016-07-20T04:22:33.852Z,18.9
2016-07-20T04:23:33.826Z,18.94
2016-07-20T04:24:33.822Z,18.9
2016-07-20T04:25:33.824Z,19.08
2016-07-20T04:26:33.822Z,18.99
2016-07-20T04:27:33.845Z,18.97
2016-07-20T04:28:33.842Z,19.06
2016-07-20T04:29:33.852Z,19.01
2016-07-20T04:30:33.858Z,19.08
2016-07-20T04:31:33.831Z,19.05
2016-07-20T04:32:33.861Z,19.14
2016-07-20T04:33:33.853Z,19.13
2016-07-20T04:34:33.856Z,19.15
2016-07-20T04:35:33.820Z,19.2
2016-07-20T04:36:33.864Z,19.18
2016-07-20T04:37:33.812Z,19.32
2016-07-20T04:38:33.888Z,19.32
2016-07-20T04:39:33.917Z,19.25
2016-07-20T04:40:33.853Z,19.4
2016-07-20T04:41:33.860Z,19.46
2016-07-20T04:42:33.906Z,19.5
2016-07-20T04:43:33.840Z,19.47
2016-07-20T04:44:33.852Z,19.42
2016-07-20T04:45:33.886Z,19.55
2016-07-20T04:46:33.920Z,19.5
2016-07-20T04:47:33.888Z,19.66
2016-07-20T04:48:33.888Z,19.55
2016-07-20T04:49:33.840Z,19.54
2016-07-20T04:50:33.848Z,19.61
2016-07-20T04:51:33.851Z,19.6
2016-07-20T04:52:33.903Z,19.72
2016-07-20T04:53:33.884Z,19.65
2016-07-20T04:54:33.951Z,19.72
2016-07-20T04:55:33.955Z,19.84
2016-07-20T04:56:33.887Z,19.88
2016-07-20T04:57:33.962Z,19.84
2016-07-20T04:58:33.914Z,19.88
2016-07-20T04:59:33.886Z,19.91
2016-07-20T05:00:33.889Z,19.91
2016-07-20T05:01:33.861Z,20.03
2016-07-20T05:02:33.903Z,19.97
2016-07-20T05:03:33.887Z,20.06
2016-07-20T05:04:33.883Z,20
2016-07-20T05:05:33.871Z,20.08
2016-07-20T05:06:33.854Z,20.16
2016-07-20T05:07:33.865Z,20.13
2016-07-20T05:08:33.917Z,20.13
2016-07-20T05:09:33.860Z,20.18
2016-07-20T05:10:33.885Z,20.31
2016-07-20T05:11:33.878Z,20.28
2016-07-20T05:12:33.855Z,20.31
2016-07-20T05:13:33.837Z,20.28
2016-07-20T05:14:33.880Z,20.38
2016-07-20T05:15:33.879Z,20.47
2016-07-20T05:16:33.883Z,20.43
2016-07-20T05:17:33.875Z,20.56
2016-07-20T05:18:33.855Z,20.61
2016-07-20T05:19:33.895Z,20.65
2016-07-20T05:20:33.876Z,20.62
2016-07-20T05:21:33.951Z,20.66
2016-07-20T05:22:33.870Z,20.68
2016-07-20T05:23:33.886Z,20.64
2016-07-20T05:24:33.881Z,20.68
2016-07-20T05:25:33.905Z,20.79
2016-07-20T05:26:33.887Z,20.8
2016-07-20T05:27:33.885Z,20.72
2016-07-20T05:28:33.945Z,20.8
2016-07-20T05:29:33.914Z,20.8
2016-07-20T05:30:33.887Z,20.93
2016-07-20T05:31:33.852Z,20.93
2016-07-20T05:32:33.917Z,20.98
2016-07-20T05:33:33.928Z,20.99
2016-07-20T05:34:33.900Z,21.06
2016-07-20T05:35:33.926Z,21.08
2016-07-20T05:36:33.934Z,21.09
2016-07-20T05:37:33.880Z,21.21
2016-07-20T05:38:33.899Z,21.17
2016-07-20T05:39:33.894Z,21.3
2016-07-20T05:40:33.901Z,21.19
2016-07-20T05:41:33.881Z,21.35
2016-07-20T05:42:33.887Z,21.35
2016-07-20T05:43:33.921Z,21.3
2016-07-20T05:44:33.923Z,21.41
2016-07-20T05:45:33.918Z,21.36
2016-07-20T05:46:33.901Z,21.48
2016-07-20T05:47:33.907Z,21.53
2016-07-20T05:48:33.975Z,21.63
2016-07-20T05:49:33.922Z,21.57
2016-07-20T05:50:33.956Z,21.63
2016-07-20T05:51:33.947Z,21.69
2016-07-20T05:52:33.922Z,21.78
2016-07-20T05:53:33.979Z,21.87
2016-07-20T05:54:34.239Z,21.75
2016-07-20T05:55:33.919Z,21.83
2016-07-20T05:56:33.919Z,21.87
2016-07-20T05:57:33.943Z,21.92
2016-07-20T05:58:33.978Z,22.04
2016-07-20T05:59:33.955Z,21.97
2016-07-20T06:00:35.557Z,22.09
2016-07-20T06:01:33.923Z,22.2
2016-07-20T06:02:33.949Z,22.2
2016-07-20T06:03:33.913Z,22.13
2016-07-20T06:04:33.977Z,22.29
2016-07-20T06:05:33.925Z,22.27
2016-07-20T06:06:33.948Z,22.34
2016-07-20T06:07:33.915Z,22.43
2016-07-20T06:08:33.919Z,22.46
2016-07-20T06:09:33.936Z,22.49
2016-07-20T06:10:33.961Z,22.53
2016-07-20T06:11:33.951Z,22.52
2016-07-20T06:12:33.947Z,22.6
2016-07-20T06:13:33.950Z,22.59
2016-07-20T06:14:33.987Z,22.74
2016-07-20T06:15:34.048Z,22.71
2016-07-20T06:16:33.963Z,22.89
2016-07-20T06:17:33.962Z,22.84
2016-07-20T06:18:34.012Z,22.93
2016-07-20T06:19:34.018Z,22.89
2016-07-20T06:20:34.045Z,22.94
2016-07-20T06:21:33.993Z,23.17
2016-07-20T06:22:34.023Z,23.17
2016-07-20T06:23:34.068Z,23.14
2016-07-20T06:24:34.027Z,23.17
2016-07-20T06:25:33.957Z,23.2
2016-07-20T06:26:34.011Z,23.35
2016-07-20T06:27:33.980Z,23.43
2016-07-20T06:28:33.982Z,23.49
2016-07-20T06:29:33.950Z,23.52
2016-07-20T06:30:33.961Z,23.68
2016-07-20T06:31:34.250Z,23.7
2016-07-20T06:32:34.036Z,23.7
2016-07-20T06:33:34.090Z,23.64
2016-07-20T06:34:34.013Z,23.85
2016-07-20T06:35:33.988Z,23.87
2016-07-20T06:36:33.979Z,23.83
2016-07-20T06:37:33.938Z,23.92
2016-07-20T06:38:33.944Z,24
2016-07-20T06:39:34.010Z,24.17
2016-07-20T06:40:33.950Z,23.92
2016-07-20T06:41:33.984Z,24.16
2016-07-20T06:42:33.992Z,24.13
2016-07-20T06:43:33.997Z,24.35
2016-07-20T06:44:33.972Z,24.35
2016-07-20T06:45:33.980Z,24.35
2016-07-20T06:46:33.978Z,24.5
2016-07-20T06:47:33.986Z,24.6
2016-07-20T06:48:33.981Z,24.71
2016-07-20T06:49:33.965Z,24.73
2016-07-20T06:50:34.036Z,24.82
2016-07-20T06:51:33.995Z,24.97
2016-07-20T06:52:34.081Z,24.9
2016-07-20T06:53:33.980Z,25.19
2016-07-20T06:54:33.972Z,25.64
2016-07-20T06:55:34.185Z,26.12
2016-07-20T06:56:34.550Z,26.94
2016-07-20T06:57:34.009Z,27.53
2016-07-20T06:58:33.984Z,28.16
2016-07-20T06:59:34.629Z,28.72
2016-07-20T07:00:33.983Z,29.23
2016-07-20T07:01:34.540Z,29.82
2016-07-20T07:02:33.980Z,30.27
2016-07-20T07:03:33.995Z,30.52
2016-07-20T07:04:34.012Z,30.74
2016-07-20T07:05:33.986Z,31.15
2016-07-20T07:06:33.999Z,31.48
2016-07-20T07:07:34.005Z,31.82
2016-07-20T07:08:33.981Z,32.14
2016-07-20T07:09:33.953Z,32.4
2016-07-20T07:10:34.019Z,32.54
2016-07-20T07:11:34.028Z,32.54
2016-07-20T07:12:33.991Z,32.79
2016-07-20T07:13:34.039Z,32.99
2016-07-20T07:14:33.988Z,33.1
2016-07-20T07:15:33.983Z,33.37
2016-07-20T07:16:34.016Z,33.63
2016-07-20T07:17:34.018Z,33.73
2016-07-20T07:18:33.997Z,33.94
2016-07-20T07:19:34.043Z,34.14
2016-07-20T07:20:33.991Z,34.24
2016-07-20T07:21:34.051Z,34.38
2016-07-20T07:22:34.031Z,34.44
2016-07-20T07:23:34.047Z,34.32
2016-07-20T07:24:34.012Z,34.36
2016-07-20T07:25:34.129Z,34.51
2016-07-20T07:26:34.565Z,34.69
2016-07-20T07:27:34.065Z,34.8
2016-07-20T07:28:34.003Z,34.89
2016-07-20T07:29:33.992Z,35.01
2016-07-20T07:30:34.032Z,35.1
2016-07-20T07:31:34.023Z,35.11
2016-07-20T07:32:34.051Z,35.23
2016-07-20T07:33:34.071Z,35.29
2016-07-20T07:34:34.030Z,35.35
2016-07-20T07:35:34.031Z,35.48
2016-07-20T07:36:34.124Z,35.36
2016-07-20T07:37:34.013Z,35.3
2016-07-20T07:38:42.700Z,35.35
2016-07-20T07:39:42.088Z,35.37
2016-07-20T07:40:42.497Z,35.33
2016-07-20T07:41:37.215Z,35.4
2016-07-20T07:42:34.871Z,35.26
2016-07-20T07:43:34.617Z,35.35
2016-07-20T07:44:34.891Z,35.28
2016-07-20T07:45:34.785Z,35.36
2016-07-20T07:46:34.724Z,35.4
2016-07-20T07:47:34.079Z,35.25
2016-07-20T07:48:34.126Z,35.15
2016-07-20T07:49:34.046Z,35.2
2016-07-20T07:50:34.045Z,35.11
2016-07-20T07:51:34.038Z,35.18
2016-07-20T07:52:34.041Z,35.01
2016-07-20T07:53:34.046Z,34.84
2016-07-20T07:54:34.352Z,34.8
2016-07-20T07:55:34.075Z,34.58
2016-07-20T07:56:34.014Z,34.69
2016-07-20T07:57:34.060Z,34.44
2016-07-20T07:58:34.081Z,34.35
2016-07-20T07:59:34.060Z,34.27
2016-07-20T08:00:34.072Z,34.14
2016-07-20T08:01:34.106Z,34.13
2016-07-20T08:02:34.065Z,33.97
2016-07-20T08:03:34.053Z,33.83
2016-07-20T08:04:34.058Z,33.78
2016-07-20T08:05:34.184Z,33.82
2016-07-20T08:06:34.090Z,33.71
2016-07-20T08:07:34.080Z,33.6
2016-07-20T08:08:34.079Z,33.48
2016-07-20T08:09:34.042Z,33.41
2016-07-20T08:10:34.140Z,33.26
2016-07-20T08:11:34.353Z,33.22
2016-07-20T08:12:34.082Z,32.95
2016-07-20T08:13:34.105Z,32.91
2016-07-20T08:14:34.061Z,32.86
2016-07-20T08:15:34.085Z,32.79
2016-07-20T08:16:34.077Z,32.7
2016-07-20T08:17:34.118Z,32.66
2016-07-20T08:18:34.171Z,32.51
2016-07-20T08:19:34.132Z,32.42
2016-07-20T08:20:34.196Z,32.3
2016-07-20T08:21:34.145Z,32.2
2016-07-20T08:22:34.108Z,32.13
2016-07-20T08:23:34.101Z,32.14
2016-07-20T08:24:34.143Z,32.07
2016-07-20T08:25:34.081Z,32.02
2016-07-20T08:26:34.078Z,32.02
2016-07-20T08:27:34.134Z,31.85
2016-07-20T08:28:34.083Z,31.77
2016-07-20T08:29:34.153Z,31.68
2016-07-20T08:30:34.196Z,31.68
2016-07-20T08:31:34.142Z,31.62
2016-07-20T08:32:34.145Z,31.58
2016-07-20T08:33:34.245Z,31.53
2016-07-20T08:34:34.141Z,31.53
2016-07-20T08:35:34.113Z,31.48
2016-07-20T08:36:34.351Z,31.46
2016-07-20T08:37:34.166Z,31.39
2016-07-20T08:38:34.171Z,31.31
2016-07-20T08:39:34.108Z,31.33
2016-07-20T08:40:34.088Z,31.2
2016-07-20T08:41:34.117Z,31.15
2016-07-20T08:42:34.124Z,31.18
2016-07-20T08:43:34.166Z,31.13
2016-07-20T08:44:34.135Z,31.18
2016-07-20T08:45:34.719Z,31.13
2016-07-20T08:46:34.259Z,31.17
2016-07-20T08:47:34.100Z,31.18
2016-07-20T08:48:34.199Z,31.04
2016-07-20T08:49:34.113Z,31.06
2016-07-20T08:50:34.138Z,31.02
2016-07-20T08:51:34.101Z,31.08
2016-07-20T08:52:34.110Z,31.11
2016-07-20T08:53:34.145Z,31.08
2016-07-20T08:54:34.109Z,31.06
2016-07-20T08:55:34.128Z,31.06
2016-07-20T08:56:34.121Z,31.09
2016-07-20T08:57:34.160Z,30.91
2016-07-20T08:58:34.179Z,30.94
2016-07-20T08:59:34.125Z,31.09
2016-07-20T09:00:34.136Z,31.04
2016-07-20T09:01:34.139Z,31.08
2016-07-20T09:02:34.200Z,31.09
2016-07-20T09:03:34.229Z,31.12
2016-07-20T09:04:34.142Z,31.26
2016-07-20T09:05:34.139Z,31.28
2016-07-20T09:06:34.348Z,31.28
2016-07-20T09:07:34.139Z,31.24
2016-07-20T09:08:34.126Z,31.3
2016-07-20T09:09:34.133Z,31.27
2016-07-20T09:10:34.172Z,31.43
2016-07-20T09:11:34.149Z,31.35
2016-07-20T09:12:34.360Z,31.31
2016-07-20T09:13:34.279Z,31.43
2016-07-20T09:14:34.137Z,31.28
2016-07-20T09:15:34.289Z,31.39
2016-07-20T09:16:34.766Z,31.42
2016-07-20T09:17:34.187Z,31.5
2016-07-20T09:18:34.291Z,31.5
2016-07-20T09:19:34.176Z,31.43
2016-07-20T09:20:34.144Z,31.48
2016-07-20T09:21:34.135Z,31.46
2016-07-20T09:22:34.166Z,31.55
2016-07-20T09:23:34.191Z,31.48
2016-07-20T09:24:34.232Z,31.58
2016-07-20T09:25:34.234Z,31.58
2016-07-20T09:26:34.257Z,31.73
2016-07-20T09:27:34.231Z,31.68
2016-07-20T09:28:34.174Z,31.67
2016-07-20T09:29:34.172Z,31.8
2016-07-20T09:30:34.182Z,31.79
2016-07-20T09:31:34.145Z,31.85
2016-07-20T09:32:34.138Z,31.77
2016-07-20T09:33:34.913Z,31.8
2016-07-20T09:34:34.197Z,31.93
2016-07-20T09:35:34.175Z,31.92
2016-07-20T09:36:34.183Z,31.85
2016-07-20T09:37:34.145Z,31.92
2016-07-20T09:38:34.214Z,31.93
2016-07-20T09:39:34.241Z,31.95
2016-07-20T09:40:34.243Z,31.98
2016-07-20T09:41:34.251Z,31.96
2016-07-20T09:42:34.171Z,31.99
2016-07-20T09:43:34.236Z,32.2
2016-07-20T09:44:34.171Z,31.98
2016-07-20T09:45:34.390Z,31.98
2016-07-20T09:46:34.243Z,32.17
2016-07-20T09:47:34.190Z,32.1
2016-07-20T09:48:34.207Z,32.22
2016-07-20T09:49:34.176Z,32.32
2016-07-20T09:50:34.176Z,32.21
2016-07-20T09:51:34.259Z,32.21
2016-07-20T09:52:34.203Z,32.21
2016-07-20T09:53:34.258Z,32.32
2016-07-20T09:54:34.172Z,32.35
2016-07-20T09:55:34.446Z,32.35
2016-07-20T09:56:34.128Z,32.35
2016-07-20T09:57:34.156Z,32.51
2016-07-20T09:58:34.259Z,32.47
2016-07-20T09:59:35.476Z,32.43
2016-07-20T10:00:34.251Z,32.44
2016-07-20T10:01:34.202Z,32.47
2016-07-20T10:02:34.214Z,32.48
2016-07-20T10:03:34.205Z,32.43
2016-07-20T10:04:34.192Z,32.51
2016-07-20T10:05:34.202Z,32.55
2016-07-20T10:06:34.211Z,32.59
2016-07-20T10:07:34.217Z,32.51
2016-07-20T10:08:34.214Z,32.66
2016-07-20T10:09:34.251Z,32.67
2016-07-20T10:10:34.205Z,32.69
2016-07-20T10:11:34.191Z,32.67
2016-07-20T10:12:35.703Z,32.77
2016-07-20T10:13:34.270Z,32.73
2016-07-20T10:14:34.267Z,32.79
2016-07-20T10:15:34.210Z,32.81
2016-07-20T10:16:34.176Z,32.76
2016-07-20T10:17:34.203Z,32.74
2016-07-20T10:18:34.231Z,32.8
2016-07-20T10:19:34.191Z,32.86
2016-07-20T10:20:34.182Z,32.76
2016-07-20T10:21:34.233Z,32.81
2016-07-20T10:22:34.214Z,32.79
2016-07-20T10:23:34.264Z,32.81
2016-07-20T10:24:34.206Z,32.71
2016-07-20T10:25:34.213Z,32.8
2016-07-20T10:26:34.231Z,32.84
2016-07-20T10:27:34.228Z,32.79
2016-07-20T10:28:34.268Z,32.86
2016-07-20T10:29:34.258Z,32.86
2016-07-20T10:30:34.241Z,32.91
2016-07-20T10:31:34.385Z,32.91
2016-07-20T10:32:34.237Z,32.86
2016-07-20T10:33:34.243Z,32.85
2016-07-20T10:34:34.240Z,32.89
2016-07-20T10:35:34.257Z,32.86
2016-07-20T10:36:34.977Z,32.91
2016-07-20T10:37:34.401Z,32.95
2016-07-20T10:38:34.356Z,32.95
2016-07-20T10:39:34.262Z,32.99
2016-07-20T10:40:34.281Z,33.01
2016-07-20T10:41:34.250Z,33.06
2016-07-20T10:42:34.227Z,32.99
2016-07-20T10:43:34.292Z,32.93
2016-07-20T10:44:34.261Z,32.99
2016-07-20T10:45:34.359Z,32.98
2016-07-20T10:46:34.240Z,33.04
2016-07-20T10:47:34.247Z,33.11
2016-07-20T10:48:34.270Z,33.11
2016-07-20T10:49:34.277Z,33.15
2016-07-20T10:50:34.266Z,33.08
2016-07-20T10:51:34.314Z,33.19
2016-07-20T10:52:34.278Z,33.19
2016-07-20T10:53:34.342Z,33.22
2016-07-20T10:54:34.259Z,33.13
2016-07-20T10:55:34.280Z,33.11
2016-07-20T10:56:34.265Z,33.13
2016-07-20T10:57:34.258Z,33.08
2016-07-20T10:58:34.320Z,33.08
2016-07-20T11:00:19.031Z,33.15
2016-07-20T11:00:34.287Z,33.13
2016-07-20T11:01:34.254Z,33.2
2016-07-20T11:02:34.300Z,33.17
2016-07-20T11:03:34.616Z,33.19
2016-07-20T11:04:34.298Z,33.19
2016-07-20T11:05:34.251Z,33.13
2016-07-20T11:06:34.304Z,33.31
2016-07-20T11:07:34.265Z,33.27
2016-07-20T11:08:34.311Z,33.31
2016-07-20T11:09:34.280Z,33.23
2016-07-20T11:10:34.319Z,33.3
2016-07-20T11:11:34.326Z,33.11
2016-07-20T11:12:34.304Z,33.17
2016-07-20T11:13:34.340Z,33.19
2016-07-20T11:14:34.294Z,33.23
2016-07-20T11:15:34.289Z,33.22
2016-07-20T11:16:34.296Z,33.31
2016-07-20T11:17:34.300Z,33.26
2016-07-20T11:18:34.324Z,33.36
2016-07-20T11:19:34.302Z,33.27
2016-07-20T11:20:34.450Z,33.33
2016-07-20T11:21:34.338Z,33.41
2016-07-20T11:22:34.397Z,33.43
2016-07-20T11:23:34.347Z,33.41
2016-07-20T11:24:34.390Z,33.37
2016-07-20T11:25:34.290Z,33.34
2016-07-20T11:26:34.301Z,33.48
2016-07-20T11:27:34.295Z,33.51
2016-07-20T11:28:34.367Z,33.48
2016-07-20T11:29:34.310Z,33.49
2016-07-20T11:30:34.301Z,33.46
2016-07-20T11:31:34.347Z,33.51
2016-07-20T11:32:34.357Z,33.42
2016-07-20T11:33:34.304Z,33.41
2016-07-20T11:34:34.356Z,33.39
2016-07-20T11:35:34.345Z,33.46
2016-07-20T11:36:34.357Z,33.43
2016-07-20T11:37:34.403Z,33.41
2016-07-20T11:38:34.475Z,33.46
2016-07-20T11:39:34.411Z,33.51
2016-07-20T11:40:34.361Z,33.49
2016-07-20T11:41:34.451Z,33.55
2016-07-20T11:42:34.332Z,33.58
2016-07-20T11:43:34.355Z,33.58
2016-07-20T11:44:34.368Z,33.58
2016-07-20T11:45:34.302Z,33.51
2016-07-20T11:46:34.366Z,33.49
2016-07-20T11:47:34.340Z,33.55
2016-07-20T11:48:34.337Z,33.63
2016-07-20T11:49:34.349Z,33.52
2016-07-20T11:50:34.371Z,33.51
2016-07-20T11:51:34.361Z,33.45
2016-07-20T11:52:34.365Z,33.46
2016-07-20T11:53:34.490Z,33.46
2016-07-20T11:54:34.428Z,33.45
2016-07-20T11:55:34.349Z,33.36
2016-07-20T11:56:34.424Z,33.53
2016-07-20T11:57:34.494Z,33.51
2016-07-20T11:58:35.098Z,33.55
2016-07-20T11:59:34.418Z,33.52
2016-07-20T12:00:34.566Z,33.64
2016-07-20T12:01:34.493Z,33.65
2016-07-20T12:02:34.403Z,33.57
2016-07-20T12:03:34.514Z,33.58
2016-07-20T12:04:34.419Z,33.65
2016-07-20T12:05:35.456Z,33.65
2016-07-20T12:06:34.421Z,33.6
2016-07-20T12:07:34.336Z,33.64
2016-07-20T12:08:34.375Z,33.63
2016-07-20T12:09:34.451Z,33.7
2016-07-20T12:10:34.385Z,33.65
2016-07-20T12:11:34.393Z,33.6
2016-07-20T12:12:34.356Z,33.67
2016-07-20T12:13:34.320Z,33.67
2016-07-20T12:14:34.342Z,33.68
2016-07-20T12:15:34.364Z,33.73
2016-07-20T12:16:34.326Z,33.67
2016-07-20T12:17:34.362Z,33.7
2016-07-20T12:18:34.371Z,33.83
2016-07-20T12:19:34.371Z,33.8
2016-07-20T12:20:34.361Z,33.82
2016-07-20T12:21:34.411Z,33.86
2016-07-20T12:22:34.351Z,33.86
2016-07-20T12:23:34.358Z,33.82
2016-07-20T12:24:34.359Z,33.83
2016-07-20T12:25:34.417Z,33.74
2016-07-20T12:26:34.379Z,33.8
2016-07-20T12:27:34.359Z,33.87
2016-07-20T12:28:34.392Z,33.73
2016-07-20T12:29:34.342Z,33.58
2016-07-20T12:30:34.359Z,33.58
2016-07-20T12:31:34.366Z,33.7
2016-07-20T12:32:34.363Z,33.7
2016-07-20T12:33:34.368Z,33.71
2016-07-20T12:34:34.368Z,33.73
2016-07-20T12:35:34.479Z,33.73
2016-07-20T12:36:34.363Z,33.74
2016-07-20T12:37:34.481Z,33.74
2016-07-20T12:38:34.444Z,33.73
2016-07-20T12:39:35.058Z,33.76
2016-07-20T12:40:34.426Z,33.74
2016-07-20T12:41:34.430Z,33.89
2016-07-20T12:42:34.388Z,33.76
2016-07-20T12:43:34.442Z,33.78
2016-07-20T12:44:34.389Z,33.87
2016-07-20T12:45:34.386Z,33.8
2016-07-20T12:46:34.463Z,33.85
2016-07-20T12:47:34.441Z,33.82
2016-07-20T12:48:34.398Z,33.85
2016-07-20T12:49:34.425Z,33.92
2016-07-20T12:50:34.412Z,33.86
2016-07-20T12:51:34.392Z,33.85
2016-07-20T12:52:34.461Z,33.82
2016-07-20T12:53:34.451Z,33.97
2016-07-20T12:54:34.368Z,33.87
2016-07-20T12:55:34.399Z,33.86